sensor_id;sensor_type;location;lat;lon;timestamp;pressure;altitude;pressure_sealevel;temperature;humidity
74431;BME280;62863;52.062;23.764;2023-10-13T00:01:00;1024.3;;;10.3;78.2
74431;BME280;62863;52.062;23.764;2023-10-13T00:06:16;1024.3;;;10.2;78.2
74431;BME280;62863;52.062;23.764;2023-10-13T00:11:11;1024.4;;;10.1;78
74431;BME280;62863;52.062;23.764;2023-10-13T00:15:42;1024.5;;;10;77.6
74431;BME280;62863;52.062;23.764;2023-10-13T00:20:36;1024.5;;;9.9;77.3
74431;BME280;62863;52.062;23.764;2023-10-13T00:25:54;1024.5;;;9.8;77.1
74431;BME280;62863;52.062;23.764;2023-10-13T00:31:14;1024.5;;;9.7;77.3
74431;BME280;62863;52.062;23.764;2023-10-13T00:35:38;1024.5;;;9.7;77.6
74431;BME280;62863;52.062;23.764;2023-10-13T00:40:52;1024.5;;;9.6;77.9
74431;BME280;62863;52.062;23.764;2023-10-13T00:46:08;1024.6;;;9.5;78.3
74431;BME280;62863;52.062;23.764;2023-10-13T00:51:00;1024.7;;;9.5;78.5
74431;BME280;62863;52.062;23.764;2023-10-13T00:55:58;1024.8;;;9.4;78.6
74431;BME280;62863;52.062;23.764;2023-10-13T01:00:42;1024.8;;;9.4;78.5
74431;BME280;62863;52.062;23.764;2023-10-13T01:05:40;1024.8;;;9.3;78.9
74431;BME280;62863;52.062;23.764;2023-10-13T01:10:36;1024.8;;;9.3;78.6
74431;BME280;62863;52.062;23.764;2023-10-13T01:15:54;1024.9;;;9.2;77.9
74431;BME280;62863;52.062;23.764;2023-10-13T01:20:56;1025;;;9.1;77.6
74431;BME280;62863;52.062;23.764;2023-10-13T01:26:08;1025.1;;;9;77.6
74431;BME280;62863;52.062;23.764;2023-10-13T01:30:52;1025.1;;;9;77.4
74431;BME280;62863;52.062;23.764;2023-10-13T01:36:06;1025.1;;;8.9;77.5
74431;BME280;62863;52.062;23.764;2023-10-13T01:40:44;1025.2;;;8.8;78.2
74431;BME280;62863;52.062;23.764;2023-10-13T01:46:12;1025.3;;;8.8;78.9
74431;BME280;62863;52.062;23.764;2023-10-13T01:50:36;1025.4;;;8.8;78.7
74431;BME280;62863;52.062;23.764;2023-10-13T01:55:36;1025.3;;;8.7;78.5
74431;BME280;62863;52.062;23.764;2023-10-13T02:00:42;1025.4;;;8.7;78.3
74431;BME280;62863;52.062;23.764;2023-10-13T02:05:36;1025.5;;;8.6;78.5
74431;BME280;62863;52.062;23.764;2023-10-13T02:11:14;1025.4;;;8.6;78.1
74431;BME280;62863;52.062;23.764;2023-10-13T02:15:52;1025.4;;;8.5;78
74431;BME280;62863;52.062;23.764;2023-10-13T02:20:52;1025.4;;;8.5;78.1
74431;BME280;62863;52.062;23.764;2023-10-13T02:25:46;1025.4;;;8.5;78.4
74431;BME280;62863;52.062;23.764;2023-10-13T02:31:14;1025.4;;;8.4;78.1
74431;BME280;62863;52.062;23.764;2023-10-13T02:35:40;1025.3;;;8.4;78.7
74431;BME280;62863;52.062;23.764;2023-10-13T02:40:52;1025.4;;;8.4;79.9
74431;BME280;62863;52.062;23.764;2023-10-13T02:45:51;1025.5;;;8.4;79.5
74431;BME280;62863;52.062;23.764;2023-10-13T02:51:00;1025.5;;;8.3;79.5
74431;BME280;62863;52.062;23.764;2023-10-13T02:56:02;1025.5;;;8.3;79.2
74431;BME280;62863;52.062;23.764;2023-10-13T03:01:10;1025.5;;;8.3;79.4
74431;BME280;62863;52.062;23.764;2023-10-13T03:05:42;1025.5;;;8.3;79.5
74431;BME280;62863;52.062;23.764;2023-10-13T03:10:36;1025.4;;;8.3;78.6
74431;BME280;62863;52.062;23.764;2023-10-13T03:15:36;1025.4;;;8.2;78.7
74431;BME280;62863;52.062;23.764;2023-10-13T03:21:14;1025.4;;;8.2;78.8
74431;BME280;62863;52.062;23.764;2023-10-13T03:25:36;1025.4;;;8.2;78.4
74431;BME280;62863;52.062;23.764;2023-10-13T03:30:46;1025.5;;;8.2;78.8
74431;BME280;62863;52.062;23.764;2023-10-13T03:35:42;1025.5;;;8.3;79.1
74431;BME280;62863;52.062;23.764;2023-10-13T03:40:49;1025.5;;;8.2;78.6
74431;BME280;62863;52.062;23.764;2023-10-13T03:46:14;1025.6;;;8.2;78.7
74431;BME280;62863;52.062;23.764;2023-10-13T03:51:00;1025.6;;;8.2;79
74431;BME280;62863;52.062;23.764;2023-10-13T03:56:00;1025.7;;;8.2;78.8
74431;BME280;62863;52.062;23.764;2023-10-13T04:00:52;1025.7;;;8.2;78.5
74431;BME280;62863;52.062;23.764;2023-10-13T04:05:46;1025.7;;;8.1;77.6
74431;BME280;62863;52.062;23.764;2023-10-13T04:11:12;1025.8;;;8;77.2
74431;BME280;62863;52.062;23.764;2023-10-13T04:15:42;1025.7;;;8;76.9
74431;BME280;62863;52.062;23.764;2023-10-13T04:20:42;1025.7;;;7.9;76.7
74431;BME280;62863;52.062;23.764;2023-10-13T04:25:42;1025.7;;;7.9;76.5
74431;BME280;62863;52.062;23.764;2023-10-13T04:31:00;1025.7;;;7.8;77
74431;BME280;62863;52.062;23.764;2023-10-13T04:36:13;1025.7;;;7.8;77.2
74431;BME280;62863;52.062;23.764;2023-10-13T04:40:48;1025.7;;;7.7;77.3
74431;BME280;62863;52.062;23.764;2023-10-13T04:45:58;1025.7;;;7.7;77.2
74431;BME280;62863;52.062;23.764;2023-10-13T04:50:45;1025.7;;;7.6;77.2
74431;BME280;62863;52.062;23.764;2023-10-13T04:55:36;1025.7;;;7.5;76.9
74431;BME280;62863;52.062;23.764;2023-10-13T05:01:12;1025.8;;;7.4;76.3
74431;BME280;62863;52.062;23.764;2023-10-13T05:05:42;1025.8;;;7.4;75.8
74431;BME280;62863;52.062;23.764;2023-10-13T05:10:46;1025.9;;;7.4;75.3
74431;BME280;62863;52.062;23.764;2023-10-13T05:15:42;1026;;;7.5;75.3
74431;BME280;62863;52.062;23.764;2023-10-13T05:20:54;1026.1;;;7.6;74.9
74431;BME280;62863;52.062;23.764;2023-10-13T05:25:59;1026.1;;;7.8;74.8
74431;BME280;62863;52.062;23.764;2023-10-13T05:31:00;1026.2;;;8.3;73.8
74431;BME280;62863;52.062;23.764;2023-10-13T05:35:58;1026.1;;;8.9;72.7
74431;BME280;62863;52.062;23.764;2023-10-13T05:40:51;1026.1;;;9.9;70.6
74431;BME280;62863;52.062;23.764;2023-10-13T05:45:46;1026.2;;;10.8;68.7
74431;BME280;62863;52.062;23.764;2023-10-13T05:51:12;1026.3;;;11.3;67.7
74431;BME280;62863;52.062;23.764;2023-10-13T05:55:46;1026.4;;;12;65.5
74431;BME280;62863;52.062;23.764;2023-10-13T06:00:38;1026.4;;;12.9;63.2
74431;BME280;62863;52.062;23.764;2023-10-13T06:05:36;1026.5;;;14;60.2
74431;BME280;62863;52.062;23.764;2023-10-13T06:11:00;1026.5;;;15;57.4
74431;BME280;62863;52.062;23.764;2023-10-13T06:16:10;1026.5;;;15.6;55.5
74431;BME280;62863;52.062;23.764;2023-10-13T06:21:02;1026.6;;;16.7;52.9
74431;BME280;62863;52.062;23.764;2023-10-13T06:26:12;1026.7;;;17.6;51.9
74431;BME280;62863;52.062;23.764;2023-10-13T06:30:56;1026.7;;;18.5;50.7
74431;BME280;62863;52.062;23.764;2023-10-13T06:35:49;1026.7;;;20.3;48.3
74431;BME280;62863;52.062;23.764;2023-10-13T06:41:00;1026.7;;;22.7;44.8
74431;BME280;62863;52.062;23.764;2023-10-13T06:45:42;1026.6;;;25.2;40.2
74431;BME280;62863;52.062;23.764;2023-10-13T06:50:52;1026.4;;;27.1;35.1
74431;BME280;62863;52.062;23.764;2023-10-13T06:55:54;1026.4;;;28;33
74431;BME280;62863;52.062;23.764;2023-10-13T07:01:00;1026.5;;;29.6;30.3
74431;BME280;62863;52.062;23.764;2023-10-13T07:06:14;1026.4;;;31;28.3
74431;BME280;62863;52.062;23.764;2023-10-13T07:10:58;1026.4;;;32.2;26.7
74431;BME280;62863;52.062;23.764;2023-10-13T07:16:00;1026.4;;;32.9;26.6
74431;BME280;62863;52.062;23.764;2023-10-13T07:20:36;1026.5;;;33.1;26.8
74431;BME280;62863;52.062;23.764;2023-10-13T07:25:51;1026.4;;;33.2;26.8
74431;BME280;62863;52.062;23.764;2023-10-13T07:31:14;1026.3;;;33.2;26.6
74431;BME280;62863;52.062;23.764;2023-10-13T07:35:36;1026.2;;;33.4;26.4
74431;BME280;62863;52.062;23.764;2023-10-13T07:40:36;1026.1;;;33.5;24.9
74431;BME280;62863;52.062;23.764;2023-10-13T07:45:36;1026.2;;;33.6;24.1
74431;BME280;62863;52.062;23.764;2023-10-13T07:51:03;1026.1;;;33.4;24.1
74431;BME280;62863;52.062;23.764;2023-10-13T07:56:12;1026.1;;;33.1;23.9
74431;BME280;62863;52.062;23.764;2023-10-13T08:00:42;1026.2;;;32.6;24.3
74431;BME280;62863;52.062;23.764;2023-10-13T08:05:58;1026.2;;;32.1;25
74431;BME280;62863;52.062;23.764;2023-10-13T08:10:50;1026.2;;;31.5;26.1
74431;BME280;62863;52.062;23.764;2023-10-13T08:15:48;1026.1;;;30.9;26.7
74431;BME280;62863;52.062;23.764;2023-10-13T08:21:14;1026.1;;;30.4;27.2
74431;BME280;62863;52.062;23.764;2023-10-13T08:25:36;1026.1;;;29.4;28.1
74431;BME280;62863;52.062;23.764;2023-10-13T08:30:42;1026;;;28.9;29.1
74431;BME280;62863;52.062;23.764;2023-10-13T08:35:42;1026;;;28.3;29.1
74431;BME280;62863;52.062;23.764;2023-10-13T08:40:57;1026.1;;;27.3;29.8
74431;BME280;62863;52.062;23.764;2023-10-13T08:46:14;1026.1;;;25.9;31.6
74431;BME280;62863;52.062;23.764;2023-10-13T08:50:52;1026.1;;;24.3;33.2
74431;BME280;62863;52.062;23.764;2023-10-13T08:56:01;1026.1;;;22.8;36
74431;BME280;62863;52.062;23.764;2023-10-13T09:00:52;1026.2;;;22;37
74431;BME280;62863;52.062;23.764;2023-10-13T09:05:48;1026.3;;;21.8;37.5
74431;BME280;62863;52.062;23.764;2023-10-13T09:11:14;1026.3;;;21.6;38
74431;BME280;62863;52.062;23.764;2023-10-13T09:15:36;1026.3;;;21.2;38.8
74431;BME280;62863;52.062;23.764;2023-10-13T09:20:50;1026.4;;;20.8;38.6
74431;BME280;62863;52.062;23.764;2023-10-13T09:25:48;1026.4;;;20.4;39
74431;BME280;62863;52.062;23.764;2023-10-13T09:31:02;1026.4;;;19.9;39.1
74431;BME280;62863;52.062;23.764;2023-10-13T09:36:14;1026.4;;;19.5;39.1
74431;BME280;62863;52.062;23.764;2023-10-13T09:40:52;1026.4;;;19.1;40.4
74431;BME280;62863;52.062;23.764;2023-10-13T09:46:00;1026.4;;;18.3;41.9
74431;BME280;62863;52.062;23.764;2023-10-13T09:50:52;1026.5;;;17.8;43.5
74431;BME280;62863;52.062;23.764;2023-10-13T09:55:37;1026.4;;;17.3;45
74431;BME280;62863;52.062;23.764;2023-10-13T10:01:15;1026.4;;;17.3;46.1
74431;BME280;62863;52.062;23.764;2023-10-13T10:05:42;1026.4;;;17.3;46.6
74431;BME280;62863;52.062;23.764;2023-10-13T10:10:44;1026.4;;;17.3;47
74431;BME280;62863;52.062;23.764;2023-10-13T10:15:36;1026.3;;;17.2;46.8
74431;BME280;62863;52.062;23.764;2023-10-13T10:21:03;1026.3;;;17;47
74431;BME280;62863;52.062;23.764;2023-10-13T10:26:12;1026.2;;;16.8;47.6
74431;BME280;62863;52.062;23.764;2023-10-13T10:30:42;1026.2;;;16.8;48.6
74431;BME280;62863;52.062;23.764;2023-10-13T10:36:00;1026.1;;;16.9;48.6
74431;BME280;62863;52.062;23.764;2023-10-13T10:40:47;1026.2;;;16.9;48.8
74431;BME280;62863;52.062;23.764;2023-10-13T10:45:36;1026.2;;;16.8;49.5
74431;BME280;62863;52.062;23.764;2023-10-13T10:51:13;1026.2;;;16.6;50.5
74431;BME280;62863;52.062;23.764;2023-10-13T10:55:36;1026.1;;;16.4;50.2
74431;BME280;62863;52.062;23.764;2023-10-13T11:00:42;1026;;;16.3;50.6
74431;BME280;62863;52.062;23.764;2023-10-13T11:06:14;1025.9;;;16.4;51
74431;BME280;62863;52.062;23.764;2023-10-13T11:10:52;1025.9;;;16.4;51.6
74431;BME280;62863;52.062;23.764;2023-10-13T11:16:18;1025.9;;;16.3;51.3
74431;BME280;62863;52.062;23.764;2023-10-13T11:21:14;1025.8;;;16.3;51.7
74431;BME280;62863;52.062;23.764;2023-10-13T11:26:00;1025.8;;;16.3;52
74431;BME280;62863;52.062;23.764;2023-10-13T11:31:00;1025.7;;;16.2;52.6
74431;BME280;62863;52.062;23.764;2023-10-13T11:35:37;1025.7;;;16;53.2
74431;BME280;62863;52.062;23.764;2023-10-13T11:41:00;1025.6;;;16;54.2
74431;BME280;62863;52.062;23.764;2023-10-13T11:45:36;1025.7;;;15.9;55.2
74431;BME280;62863;52.062;23.764;2023-10-13T11:50:42;1025.7;;;15.8;55.9
74431;BME280;62863;52.062;23.764;2023-10-13T11:56:12;1025.7;;;15.7;55.9
74431;BME280;62863;52.062;23.764;2023-10-13T12:00:42;1025.7;;;15.6;56
74431;BME280;62863;52.062;23.764;2023-10-13T12:06:14;1025.7;;;15.6;55.9
74431;BME280;62863;52.062;23.764;2023-10-13T12:11:10;1025.7;;;15.7;56.1
74431;BME280;62863;52.062;23.764;2023-10-13T12:16:00;1025.6;;;15.7;56.6
74431;BME280;62863;52.062;23.764;2023-10-13T12:20:46;1025.5;;;15.8;57
74431;BME280;62863;52.062;23.764;2023-10-13T12:26:02;1025.4;;;15.9;57.4
74431;BME280;62863;52.062;23.764;2023-10-13T12:30:46;1025.4;;;15.9;57.9
74431;BME280;62863;52.062;23.764;2023-10-13T12:35:38;1025.3;;;16.1;58
74431;BME280;62863;52.062;23.764;2023-10-13T12:40:36;1025.2;;;16.2;58.3
74431;BME280;62863;52.062;23.764;2023-10-13T12:46:14;1025.1;;;16.3;57.9
74431;BME280;62863;52.062;23.764;2023-10-13T12:50:54;1024.9;;;16.7;57.6
74431;BME280;62863;52.062;23.764;2023-10-13T12:56:12;1024.8;;;17;56.9
74431;BME280;62863;52.062;23.764;2023-10-13T13:01:00;1024.8;;;16.9;57.3
74431;BME280;62863;52.062;23.764;2023-10-13T13:05:38;1024.8;;;17;57.2
74431;BME280;62863;52.062;23.764;2023-10-13T13:11:00;1024.7;;;17;57.1
74431;BME280;62863;52.062;23.764;2023-10-13T13:15:48;1024.6;;;17.1;57.4
74431;BME280;62863;52.062;23.764;2023-10-13T13:21:00;1024.6;;;17.4;57.1
74431;BME280;62863;52.062;23.764;2023-10-13T13:25:54;1024.6;;;17.5;57.1
74431;BME280;62863;52.062;23.764;2023-10-13T13:30:36;1024.7;;;17.5;58.1
74431;BME280;62863;52.062;23.764;2023-10-13T13:36:14;1024.6;;;17.6;58.3
74431;BME280;62863;52.062;23.764;2023-10-13T13:40:54;1024.5;;;17.7;58.7
74431;BME280;62863;52.062;23.764;2023-10-13T13:46:15;1024.4;;;18.3;57.7
74431;BME280;62863;52.062;23.764;2023-10-13T13:51:14;1024.3;;;18.3;57.6
74431;BME280;62863;52.062;23.764;2023-10-13T13:56:01;1024.2;;;18.2;57.7
74431;BME280;62863;52.062;23.764;2023-10-13T14:01:00;1024;;;18.2;58.1
74431;BME280;62863;52.062;23.764;2023-10-13T14:05:48;1024;;;18.1;58.5
74431;BME280;62863;52.062;23.764;2023-10-13T14:10:50;1024;;;17.8;59.2
74431;BME280;62863;52.062;23.764;2023-10-13T14:15:46;1023.9;;;17.9;59.5
74431;BME280;62863;52.062;23.764;2023-10-13T14:20:36;1023.9;;;18;59.8
74431;BME280;62863;52.062;23.764;2023-10-13T14:26:13;1023.8;;;18;60
74431;BME280;62863;52.062;23.764;2023-10-13T14:30:54;1023.7;;;17.9;60.9
74431;BME280;62863;52.062;23.764;2023-10-13T14:36:12;1023.6;;;17.9;61.3
74431;BME280;62863;52.062;23.764;2023-10-13T14:41:12;1023.6;;;17.8;61.7
74431;BME280;62863;52.062;23.764;2023-10-13T14:45:52;1023.5;;;17.7;61.8
74431;BME280;62863;52.062;23.764;2023-10-13T14:51:00;1023.5;;;17.5;62.3
74431;BME280;62863;52.062;23.764;2023-10-13T14:55:36;1023.5;;;17.3;62.8
74431;BME280;62863;52.062;23.764;2023-10-13T15:01:00;1023.5;;;17;63.4
74431;BME280;62863;52.062;23.764;2023-10-13T15:05:37;1023.4;;;16.7;64.3
74431;BME280;62863;52.062;23.764;2023-10-13T15:10:42;1023.4;;;16.4;65.4
74431;BME280;62863;52.062;23.764;2023-10-13T15:16:13;1023.4;;;16.2;66.4
74431;BME280;62863;52.062;23.764;2023-10-13T15:20:52;1023.4;;;16;67.3
74431;BME280;62863;52.062;23.764;2023-10-13T15:26:12;1023.4;;;15.8;68.7
74431;BME280;62863;52.062;23.764;2023-10-13T15:31:10;1023.4;;;15.6;69.8
74431;BME280;62863;52.062;23.764;2023-10-13T15:35:52;1023.4;;;15.5;70.4
74431;BME280;62863;52.062;23.764;2023-10-13T15:41:00;1023.3;;;15.3;70.8
74431;BME280;62863;52.062;23.764;2023-10-13T15:45:48;1023.3;;;15.2;71.3
74431;BME280;62863;52.062;23.764;2023-10-13T15:50:58;1023.3;;;15.1;71.8
74431;BME280;62863;52.062;23.764;2023-10-13T15:55:52;1023.2;;;15;71.7
74431;BME280;62863;52.062;23.764;2023-10-13T16:00:42;1023.2;;;14.9;72.1
74431;BME280;62863;52.062;23.764;2023-10-13T16:06:10;1023.2;;;14.9;72.6
74431;BME280;62863;52.062;23.764;2023-10-13T16:10:46;1023.2;;;14.8;73
74431;BME280;62863;52.062;23.764;2023-10-13T16:16:14;1023.2;;;14.7;74
74431;BME280;62863;52.062;23.764;2023-10-13T16:21:14;1023.1;;;14.7;75
74431;BME280;62863;52.062;23.764;2023-10-13T16:25:50;1023;;;14.7;75.2
74431;BME280;62863;52.062;23.764;2023-10-13T16:31:00;1022.9;;;14.7;75.1
74431;BME280;62863;52.062;23.764;2023-10-13T16:35:36;1022.9;;;14.8;75.3
74431;BME280;62863;52.062;23.764;2023-10-13T16:41:00;1022.7;;;14.9;75.1
74431;BME280;62863;52.062;23.764;2023-10-13T16:45:48;1022.7;;;15;74.9
74431;BME280;62863;52.062;23.764;2023-10-13T16:50:42;1022.6;;;15.1;74.6
74431;BME280;62863;52.062;23.764;2023-10-13T16:56:16;1022.5;;;15.2;74.7
74431;BME280;62863;52.062;23.764;2023-10-13T17:00:48;1022.5;;;15.3;74.9
74431;BME280;62863;52.062;23.764;2023-10-13T17:06:16;1022.4;;;15.3;75.1
74431;BME280;62863;52.062;23.764;2023-10-13T17:11:13;1022.3;;;15.5;75.9
74431;BME280;62863;52.062;23.764;2023-10-13T17:15:38;1022.2;;;15.6;76.1
74431;BME280;62863;52.062;23.764;2023-10-13T17:21:02;1022.2;;;15.7;76.3
74431;BME280;62863;52.062;23.764;2023-10-13T17:25:47;1022.1;;;15.8;76
74431;BME280;62863;52.062;23.764;2023-10-13T17:31:02;1021.9;;;15.9;75.7
74431;BME280;62863;52.062;23.764;2023-10-13T17:35:42;1021.9;;;15.9;75.7
74431;BME280;62863;52.062;23.764;2023-10-13T17:40:42;1021.8;;;15.9;75.2
74431;BME280;62863;52.062;23.764;2023-10-13T17:46:13;1021.8;;;15.9;75.4
74431;BME280;62863;52.062;23.764;2023-10-13T17:50:36;1021.8;;;15.8;75.5
74431;BME280;62863;52.062;23.764;2023-10-13T17:56:13;1021.8;;;15.9;75.6
74431;BME280;62863;52.062;23.764;2023-10-13T18:01:17;1021.7;;;15.9;75.9
74431;BME280;62863;52.062;23.764;2023-10-13T18:06:02;1021.6;;;15.8;76.7
74431;BME280;62863;52.062;23.764;2023-10-13T18:10:51;1021.6;;;15.7;77.1
74431;BME280;62863;52.062;23.764;2023-10-13T18:15:36;1021.7;;;15.7;77.3
74431;BME280;62863;52.062;23.764;2023-10-13T18:21:02;1021.6;;;15.7;77.4
74431;BME280;62863;52.062;23.764;2023-10-13T18:25:52;1021.4;;;15.8;76.9
74431;BME280;62863;52.062;23.764;2023-10-13T18:30:36;1021.2;;;15.8;77
74431;BME280;62863;52.062;23.764;2023-10-13T18:36:15;1021.2;;;15.8;76.6
74431;BME280;62863;52.062;23.764;2023-10-13T18:40:55;1021.2;;;15.8;76.6
74431;BME280;62863;52.062;23.764;2023-10-13T18:46:14;1021.2;;;15.8;76.6
74431;BME280;62863;52.062;23.764;2023-10-13T18:51:15;1021.3;;;15.8;76.7
74431;BME280;62863;52.062;23.764;2023-10-13T18:56:04;1021.2;;;15.8;77
74431;BME280;62863;52.062;23.764;2023-10-13T19:00:44;1021.1;;;15.8;77.7
74431;BME280;62863;52.062;23.764;2023-10-13T19:05:36;1021;;;15.8;77.7
74431;BME280;62863;52.062;23.764;2023-10-13T19:11:03;1021.1;;;15.9;77.7
74431;BME280;62863;52.062;23.764;2023-10-13T19:15:36;1021.1;;;15.9;77.5
74431;BME280;62863;52.062;23.764;2023-10-13T19:20:42;1021;;;15.9;77.2
74431;BME280;62863;52.062;23.764;2023-10-13T19:26:15;1021;;;15.9;77.2
74431;BME280;62863;52.062;23.764;2023-10-13T19:30:38;1021;;;15.9;76.9
74431;BME280;62863;52.062;23.764;2023-10-13T19:36:13;1021.1;;;15.8;77.1
74431;BME280;62863;52.062;23.764;2023-10-13T19:41:12;1021;;;15.9;77.1
74431;BME280;62863;52.062;23.764;2023-10-13T19:46:04;1021;;;16;77
74431;BME280;62863;52.062;23.764;2023-10-13T19:51:02;1021;;;16.1;76.9
74431;BME280;62863;52.062;23.764;2023-10-13T19:55:48;1021.1;;;16.1;77.1
74431;BME280;62863;52.062;23.764;2023-10-13T20:00:36;1021;;;16.2;77.4
74431;BME280;62863;52.062;23.764;2023-10-13T20:05:37;1021;;;16.3;77.2
74431;BME280;62863;52.062;23.764;2023-10-13T20:11:16;1020.9;;;16.2;77.2
74431;BME280;62863;52.062;23.764;2023-10-13T20:16:06;1020.8;;;16.2;77.4
74431;BME280;62863;52.062;23.764;2023-10-13T20:20:36;1020.9;;;16.1;77.6
74431;BME280;62863;52.062;23.764;2023-10-13T20:26:12;1020.9;;;16.1;77.5
74431;BME280;62863;52.062;23.764;2023-10-13T20:31:04;1020.8;;;16.1;77.5
74431;BME280;62863;52.062;23.764;2023-10-13T20:36:14;1020.6;;;16;77.4
74431;BME280;62863;52.062;23.764;2023-10-13T20:41:03;1020.6;;;16;77.4
74431;BME280;62863;52.062;23.764;2023-10-13T20:45:48;1020.5;;;16;77.6
74431;BME280;62863;52.062;23.764;2023-10-13T20:50:36;1020.5;;;15.9;77.7
74431;BME280;62863;52.062;23.764;2023-10-13T20:55:42;1020.5;;;15.9;77.9
74431;BME280;62863;52.062;23.764;2023-10-13T21:00:48;1020.4;;;16;78.5
74431;BME280;62863;52.062;23.764;2023-10-13T21:05:54;1020.3;;;16;78.6
74431;BME280;62863;52.062;23.764;2023-10-13T21:10:54;1020.3;;;16;78.6
74431;BME280;62863;52.062;23.764;2023-10-13T21:16:15;1020.3;;;16;78.8
74431;BME280;62863;52.062;23.764;2023-10-13T21:20:39;1020.3;;;16;78.6
74431;BME280;62863;52.062;23.764;2023-10-13T21:26:17;1020.2;;;16;78.9
74431;BME280;62863;52.062;23.764;2023-10-13T21:31:15;1020.1;;;15.9;78.7
74431;BME280;62863;52.062;23.764;2023-10-13T21:35:40;1020;;;15.9;78.4
74431;BME280;62863;52.062;23.764;2023-10-13T21:41:03;1019.9;;;15.9;78.5
74431;BME280;62863;52.062;23.764;2023-10-13T21:45:42;1019.8;;;15.9;78.6
74431;BME280;62863;52.062;23.764;2023-10-13T21:50:42;1019.8;;;15.8;78.6
74431;BME280;62863;52.062;23.764;2023-10-13T21:56:11;1019.9;;;15.8;78.9
74431;BME280;62863;52.062;23.764;2023-10-13T22:00:48;1019.9;;;15.8;79.6
74431;BME280;62863;52.062;23.764;2023-10-13T22:06:15;1019.9;;;15.8;80
74431;BME280;62863;52.062;23.764;2023-10-13T22:10:56;1019.9;;;15.8;80
74431;BME280;62863;52.062;23.764;2023-10-13T22:16:12;1019.8;;;15.8;80.1
74431;BME280;62863;52.062;23.764;2023-10-13T22:21:13;1019.8;;;15.8;80.3
74431;BME280;62863;52.062;23.764;2023-10-13T22:25:43;1019.7;;;15.8;79.9
74431;BME280;62863;52.062;23.764;2023-10-13T22:30:37;1019.7;;;15.9;79.8
74431;BME280;62863;52.062;23.764;2023-10-13T22:35:37;1019.7;;;15.9;79.2
74431;BME280;62863;52.062;23.764;2023-10-13T22:40:37;1019.7;;;15.8;79.2
74431;BME280;62863;52.062;23.764;2023-10-13T22:46:09;1019.7;;;15.8;79.1
74431;BME280;62863;52.062;23.764;2023-10-13T22:50:43;1019.6;;;15.9;79.2
74431;BME280;62863;52.062;23.764;2023-10-13T22:56:15;1019.4;;;15.9;79.6
74431;BME280;62863;52.062;23.764;2023-10-13T23:01:07;1019.3;;;15.9;80
74431;BME280;62863;52.062;23.764;2023-10-13T23:06:17;1019.4;;;15.9;80
74431;BME280;62863;52.062;23.764;2023-10-13T23:11:13;1019.4;;;16;80
74431;BME280;62863;52.062;23.764;2023-10-13T23:15:43;1019.3;;;16;79.9
74431;BME280;62863;52.062;23.764;2023-10-13T23:20:49;1019.3;;;16;79.9
74431;BME280;62863;52.062;23.764;2023-10-13T23:25:49;1019.3;;;16;79.7
74431;BME280;62863;52.062;23.764;2023-10-13T23:30:43;1019.3;;;16;79.3
74431;BME280;62863;52.062;23.764;2023-10-13T23:36:07;1019.2;;;15.9;79.3
74431;BME280;62863;52.062;23.764;2023-10-13T23:40:53;1019.2;;;15.8;79.5
74431;BME280;62863;52.062;23.764;2023-10-13T23:46:15;1019.1;;;15.8;79.5
74431;BME280;62863;52.062;23.764;2023-10-13T23:51:09;1019.1;;;15.7;79.9
74431;BME280;62863;52.062;23.764;2023-10-13T23:56:17;1018.9;;;15.8;80.7
